Time;durP1;ratioP1;P1;durP2;ratioP2;P2;SDS_P1;SDS_P2;PMS_P1;PMS_P2;Temp;Humidity;BMP_temperature;BMP_pressure;BME280_temperature;BME280_humidity;BME280_pressure;Samples;Min_cycle;Max_cycle;Signal;HPM_P1;HPM_P2
2022/03/14 00:00:18;;;;;;;4.10;1.85;;;14.40;55.60;;;;;;5020193;28;20132;-71
2022/03/14 00:02:45;;;;;;;3.65;1.63;;;14.40;55.70;;;;;;5052297;28;20082;-71
2022/03/14 00:05:13;;;;;;;4.78;2.05;;;14.40;55.70;;;;;;5042951;28;20025;-71
2022/03/14 00:07:38;;;;;;;3.35;1.40;;;14.30;55.70;;;;;;5039497;28;20409;-71
2022/03/14 00:10:05;;;;;;;4.28;1.75;;;14.40;55.70;;;;;;5047859;28;20029;-71
2022/03/14 00:12:31;;;;;;;4.65;1.70;;;14.30;55.60;;;;;;5052029;28;20051;-71
2022/03/14 00:15:03;;;;;;;4.38;1.60;;;14.30;55.70;;;;;;5042020;28;20413;-71
2022/03/14 00:17:29;;;;;;;;;;;14.30;55.80;;;;;;5042278;28;20032;-71
2022/03/14 00:19:57;;;;;;;3.25;1.40;;;14.30;56.30;;;;;;5044555;28;19921;-71
2022/03/14 00:22:23;;;;;;;4.10;1.50;;;14.20;55.80;;;;;;5049746;28;20030;-70
2022/03/14 00:24:49;;;;;;;3.80;1.70;;;14.20;55.80;;;;;;5018703;28;20462;-71
2022/03/14 00:27:15;;;;;;;3.03;1.63;;;14.20;55.90;;;;;;5044042;28;20035;-71
2022/03/14 00:29:41;;;;;;;3.85;1.75;;;14.20;55.90;;;;;;5050935;28;20045;-71
2022/03/14 00:32:07;;;;;;;3.92;1.70;;;14.20;55.90;;;;;;5044474;28;20029;-71
2022/03/14 00:34:33;;;;;;;4.28;1.77;;;14.20;56.00;;;;;;5049694;28;20456;-71
2022/03/14 00:36:58;;;;;;;3.10;1.50;;;14.20;56.00;;;;;;5051205;28;20153;-71
2022/03/14 00:39:24;;;;;;;3.38;1.40;;;14.20;56.10;;;;;;5036853;28;20021;-71
2022/03/14 00:41:50;;;;;;;4.20;1.67;;;14.20;56.10;;;;;;5038490;28;20032;-71
2022/03/14 00:44:17;;;;;;;3.17;1.63;;;14.20;56.20;;;;;;5040788;28;20021;-71
2022/03/14 00:46:43;;;;;;;2.70;1.33;;;14.20;56.20;;;;;;5049962;28;20029;-71
2022/03/14 00:49:10;;;;;;;2.85;1.45;;;14.20;56.20;;;;;;5046741;28;20044;-71
2022/03/14 00:51:36;;;;;;;4.03;1.58;;;14.20;56.30;;;;;;5043891;28;20120;-71
2022/03/14 00:54:03;;;;;;;3.13;1.35;;;14.20;56.30;;;;;;5053891;28;20124;-71
2022/03/14 00:56:29;;;;;;;3.30;1.45;;;14.20;56.30;;;;;;5046164;28;20018;-71
2022/03/14 00:58:55;;;;;;;3.85;1.70;;;14.20;56.40;;;;;;5044014;28;20048;-70
2022/03/14 01:01:21;;;;;;;3.03;1.55;;;14.20;56.40;;;;;;5039967;28;20021;-71
2022/03/14 01:03:47;;;;;;;3.53;1.40;;;14.10;56.50;;;;;;5019510;28;20032;-70
2022/03/14 01:06:13;;;;;;;3.92;1.75;;;14.10;56.50;;;;;;5041486;28;20362;-71
2022/03/14 01:08:39;;;;;;;4.25;1.92;;;14.10;56.60;;;;;;5034718;28;20123;-71
2022/03/14 01:11:05;;;;;;;3.83;1.60;;;14.10;56.70;;;;;;5051965;28;20033;-71
2022/03/14 01:13:31;;;;;;;3.72;1.60;;;14.10;56.80;;;;;;5038907;28;20044;-71
2022/03/14 01:15:57;;;;;;;3.67;1.83;;;14.10;56.90;;;;;;5027574;28;20036;-71
2022/03/14 01:18:23;;;;;;;3.92;1.63;;;14.10;57.00;;;;;;5052538;28;20033;-71
2022/03/14 01:20:49;;;;;;;3.45;1.40;;;14.10;57.10;;;;;;5055288;28;20035;-71
2022/03/14 01:23:14;;;;;;;3.20;1.63;;;14.10;57.10;;;;;;5035053;28;20033;-71
2022/03/14 01:25:42;;;;;;;3.35;1.48;;;14.10;57.20;;;;;;5037242;28;20057;-71
2022/03/14 01:28:08;;;;;;;4.70;1.88;;;14.10;57.30;;;;;;5046751;28;20032;-71
2022/03/14 01:30:34;;;;;;;4.13;1.80;;;14.10;57.40;;;;;;5035026;28;20467;-71
2022/03/14 01:33:00;;;;;;;3.92;1.65;;;14.00;57.40;;;;;;5043414;28;20037;-71
2022/03/14 01:35:26;;;;;;;4.03;1.75;;;14.00;57.60;;;;;;5054305;28;20094;-71
2022/03/14 01:37:52;;;;;;;3.63;1.73;;;14.00;57.60;;;;;;5036571;28;20025;-71
2022/03/14 01:40:22;;;;;;;4.38;1.80;;;14.00;57.70;;;;;;5054058;28;20036;-71
2022/03/14 01:42:48;;;;;;;4.38;1.98;;;14.00;57.70;;;;;;5049026;28;20025;-71
2022/03/14 01:45:18;;;;;;;4.28;1.80;;;14.00;57.60;;;;;;5047577;28;20040;-71
2022/03/14 01:47:45;;;;;;;4.25;2.03;;;14.00;57.70;;;;;;5039185;28;20119;-71
2022/03/14 01:50:12;;;;;;;4.72;1.80;;;14.00;57.80;;;;;;5036806;28;20369;-71
2022/03/14 01:52:38;;;;;;;4.65;2.10;;;14.00;57.80;;;;;;5053155;28;20025;-71
2022/03/14 01:55:05;;;;;;;5.25;2.20;;;13.90;57.90;;;;;;5053910;28;20033;-71
2022/03/14 01:57:32;;;;;;;5.18;2.20;;;14.00;58.00;;;;;;5054426;28;20072;-71
2022/03/14 01:59:58;;;;;;;3.60;1.67;;;13.90;58.00;;;;;;5034393;28;20116;-71
2022/03/14 02:02:27;;;;;;;4.43;1.98;;;13.90;58.10;;;;;;5050912;28;20014;-71
2022/03/14 02:04:53;;;;;;;5.30;2.25;;;13.90;58.10;;;;;;5045635;28;20036;-71
2022/03/14 02:07:20;;;;;;;4.55;1.90;;;13.90;58.20;;;;;;5054999;28;20498;-71
2022/03/14 02:09:45;;;;;;;4.43;1.90;;;13.90;58.30;;;;;;5053258;28;20377;-71
2022/03/14 02:12:11;;;;;;;3.83;1.88;;;13.90;58.40;;;;;;5053341;28;20055;-71
2022/03/14 02:14:39;;;;;;;5.28;2.10;;;13.90;58.40;;;;;;5038552;28;20095;-71
2022/03/14 02:17:16;;;;;;;4.88;2.22;;;13.90;58.50;;;;;;5035312;28;20053;-71
2022/03/14 02:19:43;;;;;;;4.43;1.90;;;13.80;58.60;;;;;;5032166;28;20128;-71
2022/03/14 02:22:11;;;;;;;4.47;2.08;;;13.80;58.60;;;;;;5035253;28;20040;-71
2022/03/14 02:24:38;;;;;;;4.20;1.80;;;13.80;58.60;;;;;;5034985;28;20044;-71
2022/03/14 02:27:04;;;;;;;5.45;2.20;;;13.80;58.70;;;;;;5034811;28;20030;-71
2022/03/14 02:29:30;;;;;;;5.13;1.92;;;13.80;58.80;;;;;;5027997;28;20048;-71
2022/03/14 02:31:56;;;;;;;5.40;2.40;;;13.80;59.00;;;;;;5054534;28;20032;-71
2022/03/14 02:34:21;;;;;;;6.00;2.30;;;13.70;59.00;;;;;;5044067;28;20040;-71
2022/03/14 02:36:47;;;;;;;5.07;2.20;;;13.70;59.10;;;;;;5034809;28;20323;-71
2022/03/14 02:39:13;;;;;;;4.93;2.10;;;13.70;59.10;;;;;;5040047;28;20122;-71
2022/03/14 02:41:39;;;;;;;4.43;2.03;;;13.70;59.20;;;;;;5038398;28;20373;-71
2022/03/14 02:44:07;;;;;;;5.10;2.30;;;13.70;59.20;;;;;;5047557;28;20049;-71
2022/03/14 02:46:37;;;;;;;5.20;2.17;;;13.70;59.30;;;;;;5037688;28;20032;-71
2022/03/14 02:49:04;;;;;;;5.43;2.38;;;13.70;59.40;;;;;;5043265;28;20029;-71
2022/03/14 02:51:30;;;;;;;5.55;2.10;;;13.70;59.40;;;;;;5058380;28;20051;-71
2022/03/14 02:53:56;;;;;;;4.82;2.40;;;13.70;59.50;;;;;;5052496;28;20037;-72
2022/03/14 02:56:22;;;;;;;5.45;2.40;;;13.70;59.50;;;;;;5040933;28;20520;-71
2022/03/14 02:58:51;;;;;;;5.40;2.30;;;13.70;59.60;;;;;;5055527;28;20036;-71
2022/03/14 03:01:16;;;;;;;4.75;2.30;;;13.70;59.60;;;;;;5057354;28;20017;-71
2022/03/14 03:03:42;;;;;;;5.97;2.40;;;13.70;59.70;;;;;;5056309;28;20354;-71
2022/03/14 03:06:10;;;;;;;5.45;2.30;;;13.60;59.70;;;;;;5037366;28;20368;-71
2022/03/14 03:08:35;;;;;;;6.18;2.80;;;13.60;59.80;;;;;;5037265;28;20034;-71
2022/03/14 03:11:02;;;;;;;4.55;2.05;;;13.60;60.00;;;;;;5039137;28;20028;-71
2022/03/14 03:13:34;;;;;;;4.68;2.20;;;13.60;60.30;;;;;;5037171;28;20373;-71
2022/03/14 03:16:00;;;;;;;5.43;2.40;;;13.50;60.70;;;;;;5055749;28;20137;-71
2022/03/14 03:18:26;;;;;;;5.88;2.30;;;13.50;60.90;;;;;;5056559;28;20029;-71
2022/03/14 03:20:51;;;;;;;5.50;2.45;;;13.50;61.30;;;;;;5039757;28;20026;-71
2022/03/14 03:23:18;;;;;;;4.90;2.38;;;13.50;61.50;;;;;;5046602;28;20175;-71
2022/03/14 03:25:44;;;;;;;6.70;3.15;;;13.50;61.80;;;;;;5025216;28;20018;-71
2022/03/14 03:28:09;;;;;;;7.72;3.20;;;13.50;62.20;;;;;;5037061;28;20026;-71
2022/03/14 03:30:35;;;;;;;5.90;2.72;;;13.40;62.30;;;;;;5049662;28;20048;-71
2022/03/14 03:33:00;;;;;;;5.40;2.25;;;13.40;62.40;;;;;;5038133;28;20029;-71
2022/03/14 03:35:26;;;;;;;5.10;2.38;;;13.40;62.50;;;;;;5047539;28;20035;-71
2022/03/14 03:37:52;;;;;;;5.47;2.53;;;13.40;62.60;;;;;;5056201;28;20369;-71
2022/03/14 03:40:17;;;;;;;5.65;2.70;;;13.40;62.80;;;;;;5051152;28;20033;-71
2022/03/14 03:42:44;;;;;;;6.22;2.80;;;13.40;63.00;;;;;;5050322;28;20409;-71
2022/03/14 03:45:10;;;;;;;5.35;2.30;;;13.40;63.00;;;;;;5043150;28;20098;-71
2022/03/14 03:47:36;;;;;;;6.07;2.72;;;13.40;63.10;;;;;;5055343;28;20032;-70
2022/03/14 03:50:02;;;;;;;5.65;2.58;;;13.30;63.20;;;;;;5048472;28;20041;-70
2022/03/14 03:52:27;;;;;;;5.03;2.35;;;13.30;63.40;;;;;;5053006;28;20035;-71
2022/03/14 03:54:53;;;;;;;5.10;2.28;;;13.30;63.50;;;;;;5039398;28;20032;-71
2022/03/14 03:57:18;;;;;;;5.57;2.95;;;13.30;63.50;;;;;;5055352;28;20037;-71
2022/03/14 03:59:44;;;;;;;5.70;2.65;;;13.30;63.60;;;;;;5035383;28;20025;-71
2022/03/14 04:02:10;;;;;;;5.55;2.47;;;13.30;63.80;;;;;;5035259;28;20351;-71
2022/03/14 04:04:37;;;;;;;6.18;2.60;;;13.30;63.90;;;;;;5036648;28;20078;-71
2022/03/14 04:07:08;;;;;;;5.75;2.60;;;13.30;64.00;;;;;;5054744;28;20021;-71
2022/03/14 04:09:34;;;;;;;5.20;2.50;;;13.20;64.20;;;;;;5035758;28;20037;-71
2022/03/14 04:11:59;;;;;;;5.47;2.60;;;13.30;64.30;;;;;;5036018;28;20037;-71
2022/03/14 04:14:25;;;;;;;6.32;2.72;;;13.20;64.30;;;;;;5037118;28;20022;-71
2022/03/14 04:16:51;;;;;;;6.13;2.75;;;13.20;64.40;;;;;;5052348;28;20465;-71
2022/03/14 04:19:16;;;;;;;5.22;2.67;;;13.20;64.50;;;;;;5055596;28;20033;-71
2022/03/14 04:21:45;;;;;;;6.13;2.75;;;13.10;64.60;;;;;;5040609;28;20025;-71
2022/03/14 04:24:11;;;;;;;5.72;2.95;;;13.10;64.70;;;;;;5039018;28;20041;-71
2022/03/14 04:26:38;;;;;;;6.28;2.75;;;13.10;64.70;;;;;;5035832;28;20033;-71
2022/03/14 04:29:04;;;;;;;4.97;2.47;;;13.10;64.80;;;;;;4997539;28;1071427;-71
2022/03/14 04:31:29;;;;;;;5.60;2.40;;;13.10;64.90;;;;;;5049067;28;20128;-71
2022/03/14 04:33:58;;;;;;;6.00;2.92;;;13.10;64.90;;;;;;5049072;28;20472;-71
2022/03/14 04:36:23;;;;;;;6.22;3.00;;;13.10;65.00;;;;;;5043447;28;20026;-71
2022/03/14 04:38:49;;;;;;;5.88;2.75;;;13.10;65.00;;;;;;5036226;28;20049;-71
2022/03/14 04:41:15;;;;;;;5.80;2.80;;;13.10;65.20;;;;;;5035782;28;20065;-71
2022/03/14 04:43:41;;;;;;;5.82;2.80;;;13.00;65.20;;;;;;5019897;28;20464;-71
2022/03/14 04:46:07;;;;;;;6.32;2.95;;;13.10;65.30;;;;;;5043694;28;20082;-71
2022/03/14 04:48:33;;;;;;;5.75;2.90;;;13.10;65.40;;;;;;5037339;28;20041;-71
2022/03/14 04:50:59;;;;;;;5.72;2.50;;;13.00;65.40;;;;;;5026035;28;20041;-71
2022/03/14 04:53:25;;;;;;;6.50;2.72;;;13.00;65.50;;;;;;5041098;28;20040;-70
2022/03/14 04:55:51;;;;;;;5.90;2.88;;;13.00;65.70;;;;;;5037748;28;20037;-71
2022/03/14 04:58:17;;;;;;;6.32;3.30;;;13.00;65.70;;;;;;5020123;28;20032;-71
2022/03/14 05:00:43;;;;;;;6.20;2.90;;;13.00;65.80;;;;;;5033251;28;20030;-71
2022/03/14 05:03:09;;;;;;;6.00;3.00;;;13.00;65.90;;;;;;5019954;28;20040;-71
2022/03/14 05:05:40;;;;;;;6.07;2.80;;;13.00;65.90;;;;;;5039446;28;20033;-71
2022/03/14 05:08:06;;;;;;;5.75;2.83;;;13.00;65.80;;;;;;5034317;28;20441;-71
2022/03/14 05:10:32;;;;;;;5.70;2.88;;;13.00;65.80;;;;;;5034707;28;20029;-71
2022/03/14 05:13:02;;;;;;;6.20;3.15;;;13.00;65.80;;;;;;5036872;28;20029;-71
2022/03/14 05:15:29;;;;;;;6.28;3.55;;;13.00;66.10;;;;;;5033663;28;20036;-71
2022/03/14 05:17:57;;;;;;;6.32;3.53;;;12.90;66.40;;;;;;5048864;28;20037;-72
2022/03/14 05:20:23;;;;;;;6.85;3.38;;;12.90;66.90;;;;;;5035430;28;20044;-71
2022/03/14 05:22:50;;;;;;;6.80;4.15;;;12.80;67.20;;;;;;5026566;28;20029;-71
2022/03/14 05:25:23;;;;;;;6.90;4.03;;;12.80;67.60;;;;;;5026179;28;20056;-71
2022/03/14 05:27:49;;;;;;;7.45;4.32;;;12.70;68.00;;;;;;5032225;28;20025;-71
2022/03/14 05:30:15;;;;;;;6.82;4.07;;;12.70;68.30;;;;;;5034796;28;20042;-71
2022/03/14 05:32:42;;;;;;;7.50;4.55;;;12.60;68.70;;;;;;5034183;28;20029;-71
2022/03/14 05:35:11;;;;;;;6.88;4.10;;;12.60;68.90;;;;;;5049118;28;20029;-71
2022/03/14 05:37:38;;;;;;;8.10;4.55;;;12.60;69.20;;;;;;5046160;28;20167;-72
2022/03/14 05:40:04;;;;;;;7.10;4.30;;;12.50;69.40;;;;;;5039692;28;20021;-72
2022/03/14 05:42:30;;;;;;;7.15;4.13;;;12.50;69.60;;;;;;5034287;28;20024;-72
2022/03/14 05:44:55;;;;;;;7.70;4.78;;;12.50;69.80;;;;;;5019225;28;20017;-72
2022/03/14 05:47:21;;;;;;;7.97;4.90;;;12.50;70.00;;;;;;5040998;28;20024;-70
2022/03/14 05:49:48;;;;;;;8.43;5.63;;;12.40;69.90;;;;;;5038477;28;20088;-70
2022/03/14 05:52:14;;;;;;;9.13;5.90;;;12.50;70.10;;;;;;5033864;28;20448;-69
2022/03/14 05:54:40;;;;;;;8.73;5.88;;;12.50;70.10;;;;;;5044792;28;20112;-70
2022/03/14 05:57:06;;;;;;;9.52;5.95;;;12.50;70.10;;;;;;5044222;28;20025;-69
2022/03/14 05:59:33;;;;;;;9.65;6.57;;;12.40;70.10;;;;;;5047488;28;20028;-69
2022/03/14 06:01:59;;;;;;;9.05;6.13;;;12.40;70.10;;;;;;5041416;28;20057;-69
2022/03/14 06:04:24;;;;;;;9.68;6.63;;;12.40;70.00;;;;;;5033826;28;20500;-70
2022/03/14 06:06:50;;;;;;;9.32;6.55;;;12.40;70.00;;;;;;5037861;28;20040;-69
2022/03/14 06:09:15;;;;;;;9.85;7.30;;;12.40;70.10;;;;;;5044339;28;20029;-70
2022/03/14 06:11:42;;;;;;;9.90;7.00;;;12.40;70.00;;;;;;5052821;28;20367;-70
2022/03/14 06:14:08;;;;;;;10.48;6.78;;;12.40;70.00;;;;;;5037105;28;20044;-70
2022/03/14 06:16:34;;;;;;;9.95;7.00;;;12.40;70.00;;;;;;5047165;28;20068;-69
2022/03/14 06:19:00;;;;;;;9.70;6.38;;;12.40;69.90;;;;;;5053378;28;20065;-70
2022/03/14 06:21:25;;;;;;;9.85;7.15;;;12.40;69.90;;;;;;5041665;28;20021;-69
2022/03/14 06:23:51;;;;;;;9.95;6.35;;;12.50;69.90;;;;;;5040633;28;20021;-70
2022/03/14 06:26:17;;;;;;;10.07;6.55;;;12.40;69.90;;;;;;5053578;28;20473;-69
2022/03/14 06:28:43;;;;;;;10.73;7.00;;;12.40;69.90;;;;;;5038598;28;20030;-69
2022/03/14 06:31:10;;;;;;;9.98;6.32;;;12.40;69.90;;;;;;5033600;28;20047;-69
2022/03/14 06:33:37;;;;;;;10.38;6.07;;;12.40;69.90;;;;;;5045612;28;20029;-69
2022/03/14 06:36:03;;;;;;;11.02;6.60;;;12.40;69.90;;;;;;5034779;28;20033;-69
2022/03/14 06:38:28;;;;;;;10.70;6.32;;;12.40;69.90;;;;;;5045064;28;20162;-69
2022/03/14 06:40:56;;;;;;;10.52;6.32;;;12.40;69.80;;;;;;5050043;28;20033;-69
2022/03/14 06:43:23;;;;;;;9.80;5.90;;;12.40;69.80;;;;;;5048852;28;20025;-68
2022/03/14 06:45:49;;;;;;;11.35;7.40;;;12.50;69.80;;;;;;5052302;28;20037;-69
2022/03/14 06:48:15;;;;;;;9.52;6.15;;;12.50;69.70;;;;;;5039353;28;20072;-69
2022/03/14 06:50:40;;;;;;;9.35;6.25;;;12.50;69.70;;;;;;5037285;28;20049;-68
2022/03/14 06:53:07;;;;;;;12.23;7.20;;;12.50;69.80;;;;;;5039341;28;20035;-68
2022/03/14 06:55:32;;;;;;;10.95;6.90;;;12.50;69.70;;;;;;5044675;28;20413;-68
2022/03/14 06:57:58;;;;;;;11.15;6.38;;;12.50;69.70;;;;;;5035119;28;20067;-69
2022/03/14 07:00:24;;;;;;;11.18;7.22;;;12.50;69.70;;;;;;5041925;28;20025;-70
2022/03/14 07:02:50;;;;;;;10.85;7.90;;;12.50;69.70;;;;;;5045341;28;20104;-70
2022/03/14 07:05:20;;;;;;;11.38;6.45;;;12.50;69.70;;;;;;5047064;28;20407;-70
2022/03/14 07:07:47;;;;;;;11.50;8.20;;;12.60;69.70;;;;;;5040706;28;20071;-69
2022/03/14 07:10:14;;;;;;;10.85;7.50;;;12.50;69.60;;;;;;5033428;28;20351;-69
2022/03/14 07:12:49;;;;;;;10.20;7.55;;;12.60;69.60;;;;;;5033238;28;20374;-69
2022/03/14 07:15:18;;;;;;;11.25;7.55;;;12.60;69.60;;;;;;5044092;28;20033;-69
2022/03/14 07:17:44;;;;;;;12.43;7.60;;;12.60;69.70;;;;;;5030056;28;20228;-70
2022/03/14 07:20:11;;;;;;;11.60;8.43;;;12.60;69.60;;;;;;5033389;28;20508;-69
2022/03/14 07:22:53;;;;;;;12.82;7.68;;;12.50;69.70;;;;;;5034528;28;20116;-69
2022/03/14 07:25:23;;;;;;;;;;;12.50;69.80;;;;;;5037117;28;20069;-69
2022/03/14 07:27:50;;;;;;;10.88;6.25;;;12.50;69.60;;;;;;5049350;28;19909;-69
2022/03/14 07:30:16;;;;;;;11.38;7.03;;;12.40;69.70;;;;;;5055603;28;20060;-69
2022/03/14 07:32:41;;;;;;;11.57;7.72;;;12.50;69.70;;;;;;5056631;28;20373;-70
2022/03/14 07:35:09;;;;;;;12.32;8.15;;;12.50;69.70;;;;;;5055695;28;20033;-71
2022/03/14 07:37:34;;;;;;;11.25;8.20;;;12.60;69.70;;;;;;5042823;28;20037;-70
2022/03/14 07:40:00;;;;;;;11.98;7.53;;;12.60;69.60;;;;;;5049425;28;20033;-69
2022/03/14 07:42:26;;;;;;;12.23;8.13;;;12.60;69.50;;;;;;5056366;28;20025;-67
2022/03/14 07:44:52;;;;;;;12.02;7.93;;;12.60;69.60;;;;;;5056695;28;20029;-69
2022/03/14 07:47:18;;;;;;;11.52;8.13;;;12.60;69.60;;;;;;5042558;28;20029;-69
2022/03/14 07:49:44;;;;;;;14.45;8.90;;;12.60;69.60;;;;;;5037569;28;20041;-69
2022/03/14 07:52:10;;;;;;;12.98;8.65;;;12.60;69.60;;;;;;5036480;28;20553;-69
2022/03/14 07:54:36;;;;;;;12.77;8.93;;;12.70;69.60;;;;;;5045698;28;20115;-69
2022/03/14 07:57:01;;;;;;;12.57;8.48;;;12.70;69.60;;;;;;5045415;28;20393;-69
2022/03/14 07:59:27;;;;;;;13.02;8.60;;;12.70;69.50;;;;;;5039662;28;20595;-69
2022/03/14 08:01:52;;;;;;;15.57;9.55;;;12.70;69.50;;;;;;5057191;28;20043;-69
2022/03/14 08:04:18;;;;;;;12.10;8.93;;;12.70;69.50;;;;;;5055042;28;20427;-70
2022/03/14 08:06:45;;;;;;;14.48;9.63;;;12.70;69.60;;;;;;5054747;28;20349;-68
2022/03/14 08:09:11;;;;;;;16.63;10.30;;;12.70;69.50;;;;;;5037018;28;20033;-70
2022/03/14 08:11:40;;;;;;;14.30;9.88;;;12.70;69.50;;;;;;5036941;28;20025;-68
2022/03/14 08:14:06;;;;;;;14.55;9.77;;;12.70;69.50;;;;;;5055886;28;20029;-69
2022/03/14 08:16:31;;;;;;;12.98;9.70;;;12.80;69.50;;;;;;5039371;28;20093;-69
2022/03/14 08:18:57;;;;;;;15.27;10.27;;;12.80;69.40;;;;;;5036766;28;20112;-68
2022/03/14 08:21:24;;;;;;;14.38;10.10;;;12.80;69.40;;;;;;5041255;28;20029;-70
2022/03/14 08:23:50;;;;;;;15.32;10.93;;;12.80;69.40;;;;;;5029471;28;20029;-71
2022/03/14 08:26:17;;;;;;;13.70;10.27;;;12.80;69.30;;;;;;5041896;28;20151;-70
2022/03/14 08:28:44;;;;;;;14.20;10.90;;;12.90;69.30;;;;;;5040402;28;20032;-70
2022/03/14 08:31:10;;;;;;;15.48;11.50;;;12.90;69.30;;;;;;5049869;28;20049;-70
2022/03/14 08:33:41;;;;;;;16.17;11.43;;;12.90;69.30;;;;;;5019730;28;20130;-70
2022/03/14 08:36:07;;;;;;;18.83;12.13;;;13.00;69.30;;;;;;5047238;28;20032;-71
2022/03/14 08:38:33;;;;;;;15.57;12.18;;;13.00;69.20;;;;;;5038261;28;20161;-70
2022/03/14 08:40:59;;;;;;;15.30;11.55;;;13.00;69.10;;;;;;5048773;28;20029;-70
2022/03/14 08:43:24;;;;;;;17.85;11.50;;;13.00;69.10;;;;;;5040038;28;21794;-70
2022/03/14 08:45:50;;;;;;;16.23;11.07;;;13.00;69.00;;;;;;5035405;28;20033;-70
2022/03/14 08:48:17;;;;;;;18.00;12.00;;;13.00;68.90;;;;;;5036060;28;20033;-70
2022/03/14 08:50:42;;;;;;;16.65;10.68;;;13.00;68.90;;;;;;5040965;28;20036;-69
2022/03/14 08:53:09;;;;;;;15.40;11.00;;;13.00;68.80;;;;;;5053257;28;20040;-70
2022/03/14 08:55:35;;;;;;;16.50;12.13;;;13.00;68.80;;;;;;5043351;28;20049;-69
2022/03/14 08:58:02;;;;;;;16.25;11.88;;;13.00;68.80;;;;;;5042409;28;20498;-70
2022/03/14 09:00:29;;;;;;;18.13;12.48;;;13.00;68.80;;;;;;5047771;28;20025;-70
2022/03/14 09:02:55;;;;;;;17.83;13.35;;;13.00;68.80;;;;;;5046672;28;20394;-68
2022/03/14 09:05:21;;;;;;;16.48;11.50;;;13.00;68.80;;;;;;5036470;28;20049;-69
2022/03/14 09:07:47;;;;;;;16.73;12.15;;;13.00;68.70;;;;;;5026253;28;20037;-69
2022/03/14 09:10:15;;;;;;;16.67;12.20;;;13.00;68.70;;;;;;5050857;28;20025;-69
2022/03/14 09:12:42;;;;;;;17.73;12.23;;;13.00;68.70;;;;;;5052663;28;20036;-69
2022/03/14 09:15:09;;;;;;;18.17;12.93;;;13.00;68.70;;;;;;5055282;28;20033;-69
2022/03/14 09:17:35;;;;;;;15.23;11.73;;;13.00;68.60;;;;;;5049491;28;20381;-69
2022/03/14 09:20:01;;;;;;;17.85;12.60;;;13.00;68.60;;;;;;5051628;28;20037;-69
2022/03/14 09:22:28;;;;;;;18.75;12.02;;;13.00;68.50;;;;;;5057565;28;20037;-69
2022/03/14 09:24:55;;;;;;;18.98;11.95;;;13.00;68.50;;;;;;5075942;28;20054;-69
2022/03/14 09:27:24;;;;;;;17.23;12.57;;;13.00;68.40;;;;;;5075487;28;20453;-69
2022/03/14 09:29:51;;;;;;;17.75;12.82;;;13.00;68.40;;;;;;5075032;28;20053;-69
2022/03/14 09:32:17;;;;;;;18.52;13.48;;;13.00;68.40;;;;;;5074763;28;20094;-69
2022/03/14 09:34:42;;;;;;;15.35;12.05;;;13.00;68.20;;;;;;5065213;28;20429;-69
2022/03/14 09:37:08;;;;;;;18.27;13.73;;;13.00;68.10;;;;;;5051623;28;20040;-69
2022/03/14 09:39:36;;;;;;;17.20;12.40;;;13.10;68.10;;;;;;5040870;28;20040;-69
2022/03/14 09:42:02;;;;;;;18.48;12.45;;;13.20;68.10;;;;;;5049489;28;20025;-69
2022/03/14 09:44:30;;;;;;;17.17;12.88;;;13.20;68.00;;;;;;5040681;28;20034;-69
2022/03/14 09:47:00;;;;;;;22.88;15.60;;;13.20;68.00;;;;;;5062556;28;20051;-70
2022/03/14 09:49:27;;;;;;;18.73;13.45;;;13.20;67.90;;;;;;5066249;28;20358;-68
2022/03/14 09:51:53;;;;;;;21.08;15.10;;;13.20;67.80;;;;;;5055103;28;20045;-69
2022/03/14 09:54:23;;;;;;;22.13;14.93;;;13.30;67.70;;;;;;5055294;28;20480;-69
2022/03/14 09:56:48;;;;;;;18.50;13.05;;;13.30;67.70;;;;;;5044639;28;20030;-69
2022/03/14 09:59:15;;;;;;;21.58;14.20;;;13.20;67.60;;;;;;5035480;28;20099;-69
2022/03/14 10:01:41;;;;;;;22.13;14.88;;;13.20;67.70;;;;;;5040759;28;20032;-69
2022/03/14 10:04:08;;;;;;;20.42;14.82;;;13.20;67.80;;;;;;5046349;28;20040;-69
2022/03/14 10:06:35;;;;;;;20.42;15.38;;;13.10;67.80;;;;;;5051099;28;20026;-69
2022/03/14 10:09:02;;;;;;;21.25;14.40;;;13.20;67.90;;;;;;5049880;28;20397;-70
2022/03/14 10:11:28;;;;;;;25.10;16.13;;;13.20;67.80;;;;;;5037604;28;20063;-69
2022/03/14 10:13:53;;;;;;;18.25;13.93;;;13.30;67.80;;;;;;5052300;28;20358;-69
2022/03/14 10:16:20;;;;;;;21.05;14.93;;;13.30;67.70;;;;;;5037396;28;20044;-69
2022/03/14 10:19:07;;;;;;;21.38;15.48;;;13.30;67.60;;;;;;5033302;28;20034;-69
2022/03/14 10:21:38;;;;;;;20.08;13.48;;;13.30;67.60;;;;;;5034749;28;20026;-68
2022/03/14 10:24:07;;;;;;;22.85;14.98;;;13.30;67.50;;;;;;5017512;28;20041;-69
2022/03/14 10:26:34;;;;;;;21.08;15.00;;;13.40;67.50;;;;;;5033824;28;20060;-69
2022/03/14 10:29:00;;;;;;;18.98;15.27;;;13.40;67.30;;;;;;5033766;28;20029;-70
2022/03/14 10:31:30;;;;;;;19.25;14.70;;;13.50;67.30;;;;;;5033353;28;20366;-69
2022/03/14 10:34:03;;;;;;;21.25;15.32;;;13.50;67.30;;;;;;5034641;28;20037;-69
2022/03/14 10:36:51;;;;;;;20.58;14.60;;;13.50;67.30;;;;;;5035661;28;20037;-69
2022/03/14 10:39:25;;;;;;;18.17;13.57;;;13.60;67.30;;;;;;5033668;28;20132;-69
2022/03/14 10:42:04;;;;;;;20.52;14.15;;;13.70;67.00;;;;;;5033576;28;20060;-69
2022/03/14 10:44:30;;;;;;;20.67;14.10;;;14.10;66.50;;;;;;5034838;28;20037;-69
2022/03/14 10:47:00;;;;;;;16.45;12.48;;;14.50;65.70;;;;;;5054773;28;20373;-69
2022/03/14 10:49:32;;;;;;;19.30;14.23;;;14.90;65.00;;;;;;5053283;28;20120;-69
2022/03/14 10:52:09;;;;;;;18.55;13.40;;;15.10;64.20;;;;;;5054061;28;20392;-68
2022/03/14 10:54:36;;;;;;;19.80;13.77;;;15.30;63.80;;;;;;5037133;28;20129;-69
2022/03/14 10:57:13;;;;;;;20.95;14.07;;;15.30;63.40;;;;;;5038941;28;20036;-69
2022/03/14 10:59:47;;;;;;;17.73;12.95;;;15.30;63.30;;;;;;5046984;28;20040;-69
2022/03/14 11:02:20;;;;;;;17.33;12.52;;;15.20;63.30;;;;;;5055446;28;20021;-69
2022/03/14 11:04:54;;;;;;;18.13;13.18;;;15.20;63.40;;;;;;5039173;28;20342;-68
2022/03/14 11:07:24;;;;;;;19.08;13.63;;;15.40;63.30;;;;;;5041116;28;20157;-69
2022/03/14 11:09:52;;;;;;;17.45;12.63;;;15.50;62.70;;;;;;5043295;28;20073;-67
2022/03/14 11:12:20;;;;;;;15.73;12.70;;;15.80;62.40;;;;;;5027417;28;20060;-71
2022/03/14 11:15:05;;;;;;;17.75;12.73;;;15.80;62.00;;;;;;5038975;28;20107;-68
2022/03/14 11:17:32;;;;;;;18.88;12.90;;;15.70;61.80;;;;;;5040366;28;20073;-67
2022/03/14 11:19:58;;;;;;;18.40;12.65;;;15.60;61.90;;;;;;5024203;28;20040;-68
2022/03/14 11:22:27;;;;;;;16.27;13.07;;;15.50;62.10;;;;;;5040165;28;20032;-69
2022/03/14 11:24:54;;;;;;;17.48;12.82;;;15.40;62.30;;;;;;5050314;28;20025;-68
2022/03/14 11:27:24;;;;;;;17.85;13.05;;;15.30;62.30;;;;;;5037760;28;20099;-69
2022/03/14 11:29:53;;;;;;;15.48;11.82;;;15.20;62.40;;;;;;5024499;28;20132;-69
2022/03/14 11:32:19;;;;;;;18.13;11.73;;;15.10;62.40;;;;;;5046436;28;20029;-68
2022/03/14 11:34:47;;;;;;;16.33;11.23;;;15.00;62.50;;;;;;5036473;28;20135;-68
2022/03/14 11:37:14;;;;;;;16.35;10.98;;;15.00;62.60;;;;;;5039926;28;20031;-68
2022/03/14 11:39:40;;;;;;;17.65;12.50;;;14.90;62.60;;;;;;5024211;28;20065;-68
2022/03/14 11:42:06;;;;;;;18.17;11.88;;;15.00;62.60;;;;;;5040775;28;20525;-68
2022/03/14 11:44:34;;;;;;;16.70;10.40;;;15.00;62.50;;;;;;5036182;28;20347;-68
2022/03/14 11:47:00;;;;;;;14.25;10.20;;;15.00;62.30;;;;;;5041672;28;20029;-69
2022/03/14 11:49:30;;;;;;;13.73;9.70;;;14.90;62.30;;;;;;5042463;28;20033;-69
2022/03/14 11:52:18;;;;;;;15.80;10.32;;;15.00;62.30;;;;;;5037318;28;20061;-69
2022/03/14 11:54:48;;;;;;;13.23;9.32;;;15.00;62.20;;;;;;5036120;28;20415;-69
2022/03/14 11:57:43;;;;;;;15.35;10.68;;;15.00;62.00;;;;;;5045258;28;20079;-69
2022/03/14 12:00:21;;;;;;;15.55;9.05;;;15.10;61.80;;;;;;5041423;28;20079;-69
2022/03/14 12:02:49;;;;;;;14.80;9.48;;;15.20;61.80;;;;;;5045991;28;20059;-69
2022/03/14 12:05:21;;;;;;;16.73;10.30;;;15.10;61.70;;;;;;5056919;28;20021;-69
2022/03/14 12:07:47;;;;;;;15.15;10.02;;;15.20;61.80;;;;;;5042453;28;20032;-69
2022/03/14 12:10:26;;;;;;;13.80;9.23;;;15.20;61.70;;;;;;5036991;28;20037;-69
2022/03/14 12:12:53;;;;;;;14.02;9.10;;;15.40;61.40;;;;;;5020311;28;20086;-69
2022/03/14 12:15:41;;;;;;;15.55;9.05;;;15.60;61.00;;;;;;5037905;28;20036;-69
2022/03/14 12:18:28;;;;;;;13.68;9.32;;;15.80;60.60;;;;;;5050220;28;20028;-69
2022/03/14 12:21:03;;;;;;;14.65;9.43;;;15.80;60.60;;;;;;5035998;28;20091;-69
2022/03/14 12:23:33;;;;;;;14.50;9.23;;;15.80;60.30;;;;;;5039298;28;20064;-69
2022/03/14 12:26:23;;;;;;;15.15;8.63;;;15.80;60.30;;;;;;5035864;28;20025;-69
2022/03/14 12:28:49;;;;;;;15.98;9.13;;;15.90;60.00;;;;;;5036820;28;20144;-69
2022/03/14 12:31:16;;;;;;;12.90;8.55;;;15.90;59.80;;;;;;5035666;28;20084;-69
2022/03/14 12:33:44;;;;;;;12.93;8.10;;;16.10;59.60;;;;;;5022896;28;20455;-68
2022/03/14 12:36:19;;;;;;;12.77;7.88;;;16.20;59.50;;;;;;5052278;28;20358;-69
2022/03/14 12:39:12;;;;;;;14.13;7.93;;;16.30;59.40;;;;;;5041723;28;20447;-68
2022/03/14 12:41:38;;;;;;;13.23;7.60;;;16.40;59.10;;;;;;5034381;28;20017;-69